To NAV CANADA Home Page Login to a new session Search on AWWS site Feedback and Comments Disclaimer Vers la page française équivalente Tips FAQ What's new on the site To the Forecasts and Observations / NOTAM section To "File a Flight Plan" website Publications and other links Update of the User's profile FIC Telephone Numbers My Weather Data Folder Route Weather Data Regional Weather Data Local Weather Data To the Forecasts and Observations / NOTAM section
Request Generated 07/23/2016 at 09:08:10 UTC . Weather information available at that time is displayed.

METAR/TAF

HAVRE ST-PIERRE/QC    (show WxCam)

METAR CYGV 230900Z AUTO 33003KT 5/8SM BR OVC004 14/14 A2951 RMK
SLP995 DENSITY ALT 500FT=
SPECI CYGV 230857Z AUTO 31003KT 3/4SM BR OVC004 14/14 A2951 RMK
SLP995 DENSITY ALT 500FT=
SPECI CYGV 230853Z AUTO 32005KT 1 1/2SM BR OVC004 14/14 A2951 RMK
SLP994 DENSITY ALT 500FT=
SPECI CYGV 230851Z AUTO 31005KT 2 1/2SM BR OVC004 14/14 A2951 RMK
SLP995 DENSITY ALT 500FT=
SPECI CYGV 230848Z AUTO 30005KT 5SM BR OVC004 15/15 A2951 RMK SLP995
DENSITY ALT 500FT=
SPECI CYGV 230823Z AUTO 29004KT 6SM BR OVC006 14/14 A2951 RMK SLP994
DENSITY ALT 500FT=
SPECI CYGV 230813Z AUTO 25004KT 5SM BR OVC006 14/14 A2951 RMK SLP994
DENSITY ALT 500FT=
METAR CYGV 230800Z AUTO 28005KT 7SM BKN006 BKN200 14/14 A2951 RMK
SLP994 DENSITY ALT 500FT=
SPECI CYGV 230756Z AUTO 27005KT 8SM BKN006 BKN200 14/14 A2950 RMK
SLP993 DENSITY ALT 500FT=
METAR CYGV 230700Z AUTO 30005KT 9SM FEW210 BKN240 15/15 A2949 RMK
SLP990 DENSITY ALT 500FT=

TAF CYGV 230738Z 2308/2320 30005KT 6SM BR FEW210 TEMPO 2308/2311
11/2SM BR OVC004 PROB40 2308/2311 1/2SM FG VV002
FM231100 26006KT 6SM BR SCT002 TEMPO 2311/2314 P6SM NSW BKN015
FM231400 24010KT P6SM BKN030
FM231800 25012KT P6SM -SHRA BKN050
RMK FCST BASED ON AUTO OBS. NXT FCST BY 231400Z=
Your time UTC time
Weather data provided by Environment Canada and NAV CANADA